sensor_id;sensor_type;location;lat;lon;timestamp;pressure;altitude;pressure_sealevel;temperature;humidity
75998;BME280;64685;48.762;44.822;2023-11-19T00:01:43;101977.56;;;3.71;100.00
75998;BME280;64685;48.762;44.822;2023-11-19T00:06:46;101975.75;;;3.77;100.00
75998;BME280;64685;48.762;44.822;2023-11-19T00:11:49;101965.94;;;3.69;100.00
75998;BME280;64685;48.762;44.822;2023-11-19T00:16:54;101969.06;;;3.61;100.00
75998;BME280;64685;48.762;44.822;2023-11-19T00:21:57;101974.84;;;3.60;100.00
75998;BME280;64685;48.762;44.822;2023-11-19T00:27:04;101973.88;;;3.66;100.00
75998;BME280;64685;48.762;44.822;2023-11-19T00:32:11;101966.66;;;3.65;100.00
75998;BME280;64685;48.762;44.822;2023-11-19T00:37:14;101973.03;;;3.65;100.00
75998;BME280;64685;48.762;44.822;2023-11-19T00:42:18;101949.03;;;3.66;100.00
75998;BME280;64685;48.762;44.822;2023-11-19T00:47:20;101948.06;;;3.60;100.00
75998;BME280;64685;48.762;44.822;2023-11-19T00:52:23;101941.97;;;3.58;100.00
75998;BME280;64685;48.762;44.822;2023-11-19T00:57:26;101950.84;;;3.60;100.00
75998;BME280;64685;48.762;44.822;2023-11-19T01:02:29;101936.44;;;3.58;100.00
75998;BME280;64685;48.762;44.822;2023-11-19T01:07:32;101920.34;;;3.55;100.00
75998;BME280;64685;48.762;44.822;2023-11-19T01:12:35;101931.63;;;3.54;100.00
75998;BME280;64685;48.762;44.822;2023-11-19T01:17:40;101941.88;;;3.53;100.00
75998;BME280;64685;48.762;44.822;2023-11-19T01:22:54;101955.00;;;3.46;100.00
75998;BME280;64685;48.762;44.822;2023-11-19T01:27:57;101939.09;;;3.53;100.00
75998;BME280;64685;48.762;44.822;2023-11-19T01:33:01;101941.66;;;3.43;100.00
75998;BME280;64685;48.762;44.822;2023-11-19T01:38:03;101951.84;;;3.43;100.00
75998;BME280;64685;48.762;44.822;2023-11-19T01:43:06;101950.94;;;3.37;100.00
75998;BME280;64685;48.762;44.822;2023-11-19T01:48:09;101975.78;;;3.37;100.00
75998;BME280;64685;48.762;44.822;2023-11-19T01:53:14;101953.09;;;3.35;100.00
75998;BME280;64685;48.762;44.822;2023-11-19T01:58:16;101951.06;;;3.31;100.00
75998;BME280;64685;48.762;44.822;2023-11-19T02:03:19;101949.25;;;3.36;100.00
75998;BME280;64685;48.762;44.822;2023-11-19T02:08:24;101951.16;;;3.36;100.00
75998;BME280;64685;48.762;44.822;2023-11-19T02:13:27;101950.19;;;3.42;100.00
75998;BME280;64685;48.762;44.822;2023-11-19T02:18:31;101960.31;;;3.36;100.00
75998;BME280;64685;48.762;44.822;2023-11-19T02:23:34;101957.78;;;3.35;100.00
75998;BME280;64685;48.762;44.822;2023-11-19T02:28:37;101956.59;;;3.31;100.00
75998;BME280;64685;48.762;44.822;2023-11-19T02:33:40;101933.44;;;3.32;100.00
75998;BME280;64685;48.762;44.822;2023-11-19T02:38:43;101921.44;;;3.26;100.00
75998;BME280;64685;48.762;44.822;2023-11-19T02:43:46;101914.25;;;3.25;100.00
75998;BME280;64685;48.762;44.822;2023-11-19T02:48:51;101917.16;;;3.19;100.00
75998;BME280;64685;48.762;44.822;2023-11-19T02:53:54;101912.97;;;3.16;100.00
75998;BME280;64685;48.762;44.822;2023-11-19T02:58:57;101921.88;;;3.07;100.00
75998;BME280;64685;48.762;44.822;2023-11-19T03:04:00;101938.31;;;3.13;100.00
75998;BME280;64685;48.762;44.822;2023-11-19T03:09:05;101930.84;;;3.14;100.00
75998;BME280;64685;48.762;44.822;2023-11-19T03:14:12;101931.59;;;3.09;100.00
75998;BME280;64685;48.762;44.822;2023-11-19T03:19:15;101927.63;;;3.05;100.00
75998;BME280;64685;48.762;44.822;2023-11-19T03:24:27;101914.09;;;3.04;100.00
75998;BME280;64685;48.762;44.822;2023-11-19T03:29:30;101909.91;;;2.90;100.00
75998;BME280;64685;48.762;44.822;2023-11-19T03:34:33;101902.50;;;2.90;100.00
75998;BME280;64685;48.762;44.822;2023-11-19T03:39:35;101892.28;;;2.91;100.00
75998;BME280;64685;48.762;44.822;2023-11-19T03:44:38;101882.22;;;2.96;100.00
75998;BME280;64685;48.762;44.822;2023-11-19T03:49:41;101881.34;;;2.96;100.00
75998;BME280;64685;48.762;44.822;2023-11-19T03:54:44;101880.88;;;2.99;100.00
75998;BME280;64685;48.762;44.822;2023-11-19T03:59:48;101876.94;;;2.95;100.00
75998;BME280;64685;48.762;44.822;2023-11-19T04:04:50;101860.25;;;3.01;100.00
75998;BME280;64685;48.762;44.822;2023-11-19T04:09:53;101854.22;;;3.04;100.00
75998;BME280;64685;48.762;44.822;2023-11-19T04:14:57;101871.75;;;2.98;100.00
75998;BME280;64685;48.762;44.822;2023-11-19T04:20:05;101877.84;;;3.00;100.00
75998;BME280;64685;48.762;44.822;2023-11-19T04:25:08;101893.81;;;2.98;100.00
75998;BME280;64685;48.762;44.822;2023-11-19T04:30:12;101915.31;;;2.96;100.00
75998;BME280;64685;48.762;44.822;2023-11-19T04:35:14;101910.63;;;2.97;100.00
75998;BME280;64685;48.762;44.822;2023-11-19T04:40:17;101898.41;;;2.93;100.00
75998;BME280;64685;48.762;44.822;2023-11-19T04:45:25;101909.44;;;2.93;100.00
75998;BME280;64685;48.762;44.822;2023-11-19T04:50:28;101921.06;;;2.95;100.00
75998;BME280;64685;48.762;44.822;2023-11-19T04:55:30;101925.03;;;2.87;100.00
75998;BME280;64685;48.762;44.822;2023-11-19T05:00:33;101928.38;;;2.89;100.00
75998;BME280;64685;48.762;44.822;2023-11-19T05:05:36;101919.63;;;2.92;100.00
75998;BME280;64685;48.762;44.822;2023-11-19T05:10:38;101935.13;;;2.82;100.00
75998;BME280;64685;48.762;44.822;2023-11-19T05:15:41;101928.41;;;2.78;100.00
75998;BME280;64685;48.762;44.822;2023-11-19T05:20:45;101939.56;;;2.71;100.00
75998;BME280;64685;48.762;44.822;2023-11-19T05:25:48;101944.63;;;2.63;100.00
75998;BME280;64685;48.762;44.822;2023-11-19T05:30:50;101934.19;;;2.65;100.00
75998;BME280;64685;48.762;44.822;2023-11-19T05:35:53;101935.88;;;2.66;100.00
75998;BME280;64685;48.762;44.822;2023-11-19T05:40:56;101944.84;;;2.73;100.00
75998;BME280;64685;48.762;44.822;2023-11-19T05:45:59;101939.81;;;2.70;100.00
75998;BME280;64685;48.762;44.822;2023-11-19T05:51:04;101932.75;;;2.62;100.00
75998;BME280;64685;48.762;44.822;2023-11-19T05:56:08;101927.44;;;2.72;100.00
75998;BME280;64685;48.762;44.822;2023-11-19T06:01:12;101937.19;;;2.63;100.00
75998;BME280;64685;48.762;44.822;2023-11-19T06:06:15;101938.00;;;2.75;100.00
75998;BME280;64685;48.762;44.822;2023-11-19T06:11:18;101942.94;;;2.73;100.00
75998;BME280;64685;48.762;44.822;2023-11-19T06:16:23;101943.41;;;2.70;100.00
75998;BME280;64685;48.762;44.822;2023-11-19T06:21:25;101931.28;;;2.71;100.00
75998;BME280;64685;48.762;44.822;2023-11-19T06:26:28;101920.88;;;2.62;100.00
75998;BME280;64685;48.762;44.822;2023-11-19T06:31:31;101917.28;;;2.61;100.00
75998;BME280;64685;48.762;44.822;2023-11-19T06:36:34;101914.41;;;2.68;100.00
75998;BME280;64685;48.762;44.822;2023-11-19T06:41:37;101889.69;;;2.73;100.00
75998;BME280;64685;48.762;44.822;2023-11-19T06:46:41;101885.13;;;2.78;100.00
75998;BME280;64685;48.762;44.822;2023-11-19T06:51:44;101865.56;;;2.80;100.00
75998;BME280;64685;48.762;44.822;2023-11-19T06:56:48;101850.09;;;2.90;100.00
75998;BME280;64685;48.762;44.822;2023-11-19T07:01:51;101844.22;;;2.87;100.00
75998;BME280;64685;48.762;44.822;2023-11-19T07:06:54;101824.50;;;2.95;100.00
75998;BME280;64685;48.762;44.822;2023-11-19T07:11:57;101830.88;;;2.95;100.00
75998;BME280;64685;48.762;44.822;2023-11-19T07:16:59;101828.84;;;2.91;100.00
75998;BME280;64685;48.762;44.822;2023-11-19T07:22:03;101827.13;;;3.01;100.00
75998;BME280;64685;48.762;44.822;2023-11-19T07:27:07;101828.69;;;2.97;100.00
75998;BME280;64685;48.762;44.822;2023-11-19T07:32:11;101843.69;;;3.01;100.00
75998;BME280;64685;48.762;44.822;2023-11-19T07:37:16;101838.00;;;3.08;100.00
75998;BME280;64685;48.762;44.822;2023-11-19T07:42:19;101848.81;;;3.09;100.00
75998;BME280;64685;48.762;44.822;2023-11-19T07:47:22;101848.38;;;3.17;100.00
75998;BME280;64685;48.762;44.822;2023-11-19T07:52:26;101834.97;;;3.21;100.00
75998;BME280;64685;48.762;44.822;2023-11-19T07:57:28;101828.53;;;3.32;100.00
75998;BME280;64685;48.762;44.822;2023-11-19T08:02:33;101823.75;;;3.27;100.00
75998;BME280;64685;48.762;44.822;2023-11-19T08:07:36;101808.56;;;3.41;100.00
75998;BME280;64685;48.762;44.822;2023-11-19T08:12:39;101808.03;;;3.44;100.00
75998;BME280;64685;48.762;44.822;2023-11-19T08:17:42;101802.84;;;3.48;100.00
75998;BME280;64685;48.762;44.822;2023-11-19T08:22:45;101809.13;;;3.43;100.00
75998;BME280;64685;48.762;44.822;2023-11-19T08:27:48;101800.75;;;3.38;100.00
75998;BME280;64685;48.762;44.822;2023-11-19T08:32:50;101788.28;;;3.36;100.00
75998;BME280;64685;48.762;44.822;2023-11-19T08:37:53;101790.66;;;3.60;100.00
75998;BME280;64685;48.762;44.822;2023-11-19T08:42:56;101779.69;;;3.65;100.00
75998;BME280;64685;48.762;44.822;2023-11-19T08:47:59;101754.31;;;3.85;100.00
75998;BME280;64685;48.762;44.822;2023-11-19T08:53:02;101739.78;;;3.94;100.00
75998;BME280;64685;48.762;44.822;2023-11-19T08:58:05;101737.09;;;3.99;100.00
75998;BME280;64685;48.762;44.822;2023-11-19T09:03:07;101722.84;;;4.07;100.00
75998;BME280;64685;48.762;44.822;2023-11-19T09:08:12;101706.31;;;4.12;100.00
75998;BME280;64685;48.762;44.822;2023-11-19T09:13:15;101704.47;;;4.18;100.00
75998;BME280;64685;48.762;44.822;2023-11-19T09:18:17;101715.91;;;4.26;100.00
75998;BME280;64685;48.762;44.822;2023-11-19T09:23:21;101689.16;;;4.10;100.00
75998;BME280;64685;48.762;44.822;2023-11-19T09:28:24;101689.28;;;3.99;100.00
75998;BME280;64685;48.762;44.822;2023-11-19T09:33:26;101665.53;;;4.19;100.00
75998;BME280;64685;48.762;44.822;2023-11-19T09:38:29;101646.19;;;4.19;100.00
75998;BME280;64685;48.762;44.822;2023-11-19T09:43:32;101645.19;;;4.30;100.00
75998;BME280;64685;48.762;44.822;2023-11-19T09:48:36;101630.78;;;4.28;100.00
75998;BME280;64685;48.762;44.822;2023-11-19T09:53:39;101628.25;;;4.22;100.00
75998;BME280;64685;48.762;44.822;2023-11-19T09:58:42;101621.63;;;4.49;100.00
75998;BME280;64685;48.762;44.822;2023-11-19T10:04:06;101625.53;;;4.53;100.00
75998;BME280;64685;48.762;44.822;2023-11-19T10:09:11;101623.09;;;4.57;100.00
75998;BME280;64685;48.762;44.822;2023-11-19T10:14:14;101635.91;;;4.68;100.00
75998;BME280;64685;48.762;44.822;2023-11-19T10:19:20;101632.63;;;4.71;100.00
75998;BME280;64685;48.762;44.822;2023-11-19T10:24:33;101630.38;;;4.68;100.00
75998;BME280;64685;48.762;44.822;2023-11-19T10:29:43;101636.00;;;4.78;100.00
75998;BME280;64685;48.762;44.822;2023-11-19T10:34:46;101625.72;;;4.73;100.00
75998;BME280;64685;48.762;44.822;2023-11-19T10:39:53;101637.34;;;4.70;100.00
75998;BME280;64685;48.762;44.822;2023-11-19T10:44:57;101635.72;;;4.79;100.00
75998;BME280;64685;48.762;44.822;2023-11-19T10:49:59;101618.47;;;4.67;100.00
75998;BME280;64685;48.762;44.822;2023-11-19T10:55:06;101616.81;;;4.66;100.00
75998;BME280;64685;48.762;44.822;2023-11-19T11:00:12;101607.31;;;4.57;100.00
75998;BME280;64685;48.762;44.822;2023-11-19T11:05:19;101599.91;;;4.63;100.00
75998;BME280;64685;48.762;44.822;2023-11-19T11:10:26;101581.59;;;4.57;100.00
75998;BME280;64685;48.762;44.822;2023-11-19T11:15:31;101601.69;;;4.47;100.00
75998;BME280;64685;48.762;44.822;2023-11-19T11:20:34;101588.81;;;4.31;100.00
75998;BME280;64685;48.762;44.822;2023-11-19T11:36:20;101563.38;;;4.08;100.00
75998;BME280;64685;48.762;44.822;2023-11-19T11:41:24;101566.03;;;3.98;100.00
75998;BME280;64685;48.762;44.822;2023-11-19T11:59:19;101544.59;;;3.83;100.00
75998;BME280;64685;48.762;44.822;2023-11-19T12:04:26;101527.44;;;3.81;100.00
75998;BME280;64685;48.762;44.822;2023-11-19T12:09:29;101512.41;;;3.72;100.00
75998;BME280;64685;48.762;44.822;2023-11-19T12:20:08;101514.16;;;3.57;100.00
75998;BME280;64685;48.762;44.822;2023-11-19T12:25:12;101518.75;;;3.46;100.00
75998;BME280;64685;48.762;44.822;2023-11-19T12:30:22;101502.69;;;3.43;100.00
75998;BME280;64685;48.762;44.822;2023-11-19T12:35:29;101515.84;;;3.36;100.00
75998;BME280;64685;48.762;44.822;2023-11-19T12:40:32;101493.13;;;3.29;100.00
75998;BME280;64685;48.762;44.822;2023-11-19T12:45:36;101500.69;;;3.39;100.00
75998;BME280;64685;48.762;44.822;2023-11-19T12:50:56;101481.00;;;3.30;100.00
75998;BME280;64685;48.762;44.822;2023-11-19T12:56:07;101459.22;;;3.34;100.00
75998;BME280;64685;48.762;44.822;2023-11-19T13:01:16;101459.94;;;3.24;100.00
75998;BME280;64685;48.762;44.822;2023-11-19T13:06:19;101478.66;;;3.22;100.00
75998;BME280;64685;48.762;44.822;2023-11-19T13:11:31;101469.25;;;3.18;100.00
75998;BME280;64685;48.762;44.822;2023-11-19T13:16:37;101478.34;;;3.19;100.00
75998;BME280;64685;48.762;44.822;2023-11-19T13:21:40;101475.25;;;3.15;100.00
75998;BME280;64685;48.762;44.822;2023-11-19T13:26:43;101479.03;;;3.09;100.00
75998;BME280;64685;48.762;44.822;2023-11-19T13:31:45;101458.38;;;3.12;100.00
75998;BME280;64685;48.762;44.822;2023-11-19T13:36:48;101456.66;;;3.06;100.00
75998;BME280;64685;48.762;44.822;2023-11-19T13:41:51;101453.97;;;3.11;100.00
75998;BME280;64685;48.762;44.822;2023-11-19T13:46:54;101448.56;;;2.99;100.00
75998;BME280;64685;48.762;44.822;2023-11-19T13:51:57;101439.72;;;2.97;100.00
75998;BME280;64685;48.762;44.822;2023-11-19T13:57:00;101428.03;;;2.90;100.00
75998;BME280;64685;48.762;44.822;2023-11-19T14:02:05;101426.09;;;2.91;100.00
75998;BME280;64685;48.762;44.822;2023-11-19T14:07:09;101430.13;;;2.83;100.00
75998;BME280;64685;48.762;44.822;2023-11-19T14:12:13;101414.28;;;2.74;100.00
75998;BME280;64685;48.762;44.822;2023-11-19T14:17:16;101430.50;;;2.70;100.00
75998;BME280;64685;48.762;44.822;2023-11-19T14:22:19;101409.28;;;2.71;100.00
75998;BME280;64685;48.762;44.822;2023-11-19T14:27:23;101402.94;;;2.70;100.00
75998;BME280;64685;48.762;44.822;2023-11-19T14:32:27;101391.31;;;2.68;100.00
75998;BME280;64685;48.762;44.822;2023-11-19T14:37:30;101374.84;;;2.73;100.00
75998;BME280;64685;48.762;44.822;2023-11-19T14:42:36;101388.75;;;2.62;100.00
75998;BME280;64685;48.762;44.822;2023-11-19T14:47:39;101381.75;;;2.54;100.00
75998;BME280;64685;48.762;44.822;2023-11-19T14:52:42;101353.09;;;2.55;100.00
75998;BME280;64685;48.762;44.822;2023-11-19T14:57:45;101366.22;;;2.48;100.00
75998;BME280;64685;48.762;44.822;2023-11-19T15:02:58;101354.56;;;2.41;100.00
75998;BME280;64685;48.762;44.822;2023-11-19T15:08:01;101346.53;;;2.40;100.00
75998;BME280;64685;48.762;44.822;2023-11-19T15:13:05;101345.63;;;2.34;100.00
75998;BME280;64685;48.762;44.822;2023-11-19T15:18:09;101338.78;;;2.37;100.00
75998;BME280;64685;48.762;44.822;2023-11-19T15:23:15;101337.38;;;2.34;100.00
75998;BME280;64685;48.762;44.822;2023-11-19T15:28:18;101315.75;;;2.26;100.00
75998;BME280;64685;48.762;44.822;2023-11-19T15:33:21;101315.56;;;2.33;100.00
75998;BME280;64685;48.762;44.822;2023-11-19T15:38:25;101299.59;;;2.35;100.00
75998;BME280;64685;48.762;44.822;2023-11-19T15:43:28;101329.69;;;2.36;100.00
75998;BME280;64685;48.762;44.822;2023-11-19T15:48:32;101296.59;;;2.36;100.00
75998;BME280;64685;48.762;44.822;2023-11-19T15:53:34;101269.75;;;2.27;100.00
75998;BME280;64685;48.762;44.822;2023-11-19T15:58:39;101275.75;;;2.24;100.00
75998;BME280;64685;48.762;44.822;2023-11-19T16:03:42;101265.06;;;2.27;100.00
75998;BME280;64685;48.762;44.822;2023-11-19T16:08:48;101242.31;;;2.15;100.00
75998;BME280;64685;48.762;44.822;2023-11-19T16:13:52;101233.03;;;2.21;100.00
75998;BME280;64685;48.762;44.822;2023-11-19T16:18:55;101212.00;;;2.15;100.00
75998;BME280;64685;48.762;44.822;2023-11-19T16:24:01;101223.41;;;2.24;100.00
75998;BME280;64685;48.762;44.822;2023-11-19T16:29:04;101217.97;;;2.29;100.00
75998;BME280;64685;48.762;44.822;2023-11-19T16:34:08;101203.63;;;2.27;100.00
75998;BME280;64685;48.762;44.822;2023-11-19T16:39:12;101199.41;;;2.19;100.00
75998;BME280;64685;48.762;44.822;2023-11-19T16:44:18;101177.34;;;2.19;100.00
75998;BME280;64685;48.762;44.822;2023-11-19T16:49:23;101194.97;;;2.18;100.00
75998;BME280;64685;48.762;44.822;2023-11-19T16:54:26;101201.84;;;2.16;100.00
75998;BME280;64685;48.762;44.822;2023-11-19T16:59:29;101188.00;;;2.11;100.00
75998;BME280;64685;48.762;44.822;2023-11-19T17:04:32;101143.91;;;2.11;100.00
75998;BME280;64685;48.762;44.822;2023-11-19T17:09:35;101122.66;;;2.06;100.00
75998;BME280;64685;48.762;44.822;2023-11-19T17:14:37;101156.34;;;2.13;100.00
75998;BME280;64685;48.762;44.822;2023-11-19T17:19:41;101137.63;;;2.15;100.00
75998;BME280;64685;48.762;44.822;2023-11-19T17:24:45;101124.88;;;2.09;100.00
75998;BME280;64685;48.762;44.822;2023-11-19T17:29:51;101117.91;;;2.02;100.00
75998;BME280;64685;48.762;44.822;2023-11-19T17:34:54;101132.53;;;2.02;100.00
75998;BME280;64685;48.762;44.822;2023-11-19T17:39:57;101097.28;;;2.04;100.00
75998;BME280;64685;48.762;44.822;2023-11-19T17:45:01;101059.81;;;2.03;100.00
75998;BME280;64685;48.762;44.822;2023-11-19T17:50:05;101054.84;;;2.00;100.00
75998;BME280;64685;48.762;44.822;2023-11-19T17:55:11;101072.66;;;1.93;100.00
75998;BME280;64685;48.762;44.822;2023-11-19T18:00:16;101093.28;;;1.90;100.00
75998;BME280;64685;48.762;44.822;2023-11-19T18:05:19;101082.25;;;1.90;100.00
75998;BME280;64685;48.762;44.822;2023-11-19T18:10:25;101095.97;;;1.85;100.00
75998;BME280;64685;48.762;44.822;2023-11-19T18:15:28;101089.75;;;1.73;100.00
75998;BME280;64685;48.762;44.822;2023-11-19T18:20:31;101091.97;;;1.76;100.00
75998;BME280;64685;48.762;44.822;2023-11-19T18:25:35;101076.13;;;1.83;100.00
75998;BME280;64685;48.762;44.822;2023-11-19T18:30:38;101059.69;;;1.93;100.00
75998;BME280;64685;48.762;44.822;2023-11-19T18:35:41;101054.97;;;1.89;100.00
75998;BME280;64685;48.762;44.822;2023-11-19T18:40:44;101066.78;;;1.84;100.00
75998;BME280;64685;48.762;44.822;2023-11-19T18:45:47;101065.75;;;1.90;100.00
75998;BME280;64685;48.762;44.822;2023-11-19T18:50:50;101058.03;;;1.92;100.00
75998;BME280;64685;48.762;44.822;2023-11-19T18:55:54;101069.97;;;1.98;100.00
75998;BME280;64685;48.762;44.822;2023-11-19T19:00:57;101060.22;;;1.90;100.00
75998;BME280;64685;48.762;44.822;2023-11-19T19:06:00;101036.84;;;1.93;100.00
75998;BME280;64685;48.762;44.822;2023-11-19T19:11:03;101034.53;;;1.85;100.00
75998;BME280;64685;48.762;44.822;2023-11-19T19:16:07;101029.38;;;1.88;100.00
75998;BME280;64685;48.762;44.822;2023-11-19T19:21:10;101034.34;;;1.91;100.00
75998;BME280;64685;48.762;44.822;2023-11-19T19:26:13;101027.13;;;1.85;100.00
75998;BME280;64685;48.762;44.822;2023-11-19T19:31:16;101013.00;;;1.77;100.00
75998;BME280;64685;48.762;44.822;2023-11-19T19:36:20;100984.94;;;1.80;100.00
75998;BME280;64685;48.762;44.822;2023-11-19T19:41:23;100991.44;;;1.69;100.00
75998;BME280;64685;48.762;44.822;2023-11-19T19:46:29;100989.44;;;1.64;100.00
75998;BME280;64685;48.762;44.822;2023-11-19T19:51:32;100972.50;;;1.72;100.00
75998;BME280;64685;48.762;44.822;2023-11-19T19:56:35;100960.63;;;1.72;100.00
75998;BME280;64685;48.762;44.822;2023-11-19T20:01:37;100938.78;;;1.87;100.00
75998;BME280;64685;48.762;44.822;2023-11-19T20:06:40;100925.34;;;1.95;100.00
75998;BME280;64685;48.762;44.822;2023-11-19T20:11:43;100921.00;;;2.04;100.00
75998;BME280;64685;48.762;44.822;2023-11-19T20:16:49;100916.59;;;2.03;100.00
75998;BME280;64685;48.762;44.822;2023-11-19T20:22:12;100908.22;;;1.88;100.00
75998;BME280;64685;48.762;44.822;2023-11-19T20:27:15;100892.66;;;1.72;100.00
75998;BME280;64685;48.762;44.822;2023-11-19T20:32:19;100888.28;;;1.76;100.00
75998;BME280;64685;48.762;44.822;2023-11-19T20:37:21;100856.88;;;1.72;100.00
75998;BME280;64685;48.762;44.822;2023-11-19T20:42:24;100841.97;;;1.68;100.00
75998;BME280;64685;48.762;44.822;2023-11-19T20:47:27;100845.50;;;1.64;100.00
75998;BME280;64685;48.762;44.822;2023-11-19T20:52:30;100838.66;;;1.71;100.00
75998;BME280;64685;48.762;44.822;2023-11-19T20:57:33;100835.50;;;1.84;100.00
75998;BME280;64685;48.762;44.822;2023-11-19T21:02:36;100820.28;;;1.77;100.00
75998;BME280;64685;48.762;44.822;2023-11-19T21:07:39;100811.50;;;1.80;100.00
75998;BME280;64685;48.762;44.822;2023-11-19T21:12:44;100804.66;;;1.87;100.00
75998;BME280;64685;48.762;44.822;2023-11-19T21:17:49;100782.38;;;1.89;100.00
75998;BME280;64685;48.762;44.822;2023-11-19T21:22:53;100768.03;;;1.82;100.00
75998;BME280;64685;48.762;44.822;2023-11-19T21:27:55;100763.91;;;1.84;100.00
75998;BME280;64685;48.762;44.822;2023-11-19T21:32:58;100751.00;;;1.90;100.00
75998;BME280;64685;48.762;44.822;2023-11-19T21:38:01;100736.91;;;1.81;100.00
75998;BME280;64685;48.762;44.822;2023-11-19T21:43:04;100738.06;;;1.90;100.00
75998;BME280;64685;48.762;44.822;2023-11-19T21:48:07;100738.06;;;1.90;100.00
75998;BME280;64685;48.762;44.822;2023-11-19T21:53:10;100738.69;;;2.02;100.00
75998;BME280;64685;48.762;44.822;2023-11-19T21:58:12;100740.28;;;1.93;100.00
75998;BME280;64685;48.762;44.822;2023-11-19T22:03:15;100726.03;;;2.01;100.00
75998;BME280;64685;48.762;44.822;2023-11-19T22:08:18;100708.41;;;2.02;100.00
75998;BME280;64685;48.762;44.822;2023-11-19T22:13:21;100694.59;;;1.97;100.00
75998;BME280;64685;48.762;44.822;2023-11-19T22:18:25;100680.91;;;2.07;100.00
75998;BME280;64685;48.762;44.822;2023-11-19T22:23:27;100678.34;;;1.96;100.00
75998;BME280;64685;48.762;44.822;2023-11-19T22:28:30;100678.31;;;1.91;100.00
75998;BME280;64685;48.762;44.822;2023-11-19T22:33:35;100678.34;;;1.96;100.00
75998;BME280;64685;48.762;44.822;2023-11-19T22:38:38;100686.34;;;1.97;100.00
75998;BME280;64685;48.762;44.822;2023-11-19T22:43:41;100664.09;;;2.04;100.00
75998;BME280;64685;48.762;44.822;2023-11-19T22:48:44;100659.34;;;1.99;100.00
75998;BME280;64685;48.762;44.822;2023-11-19T22:53:46;100655.25;;;2.07;100.00
75998;BME280;64685;48.762;44.822;2023-11-19T22:58:49;100663.81;;;2.10;100.00
75998;BME280;64685;48.762;44.822;2023-11-19T23:03:52;100650.03;;;2.10;100.00
75998;BME280;64685;48.762;44.822;2023-11-19T23:08:55;100650.63;;;2.12;100.00
75998;BME280;64685;48.762;44.822;2023-11-19T23:13:58;100634.13;;;2.22;100.00
75998;BME280;64685;48.762;44.822;2023-11-19T23:19:01;100622.81;;;2.19;100.00
75998;BME280;64685;48.762;44.822;2023-11-19T23:24:04;100612.66;;;2.24;100.00
75998;BME280;64685;48.762;44.822;2023-11-19T23:29:07;100586.75;;;2.25;100.00
75998;BME280;64685;48.762;44.822;2023-11-19T23:34:17;100579.03;;;2.27;100.00
75998;BME280;64685;48.762;44.822;2023-11-19T23:39:20;100559.75;;;2.32;100.00
75998;BME280;64685;48.762;44.822;2023-11-19T23:44:23;100542.97;;;2.34;100.00
75998;BME280;64685;48.762;44.822;2023-11-19T23:49:25;100546.00;;;2.47;100.00
75998;BME280;64685;48.762;44.822;2023-11-19T23:54:28;100543.25;;;2.47;100.00
75998;BME280;64685;48.762;44.822;2023-11-19T23:59:31;100533.34;;;2.46;100.00
